Flagstaff, AZ

3:44 AM MST on September 30, 2014 (GMT -0700)
Bow and Arrow | Change Station
CLOSE
Current Station
Personal Weather Station
Location: Flagstaff, AZ
Elevation: 2103 m
Nearby Weather Stations

Elev 2103 m 35.16 °N, 111.66 °W | Updated 14 seconds ago

Clear
Clear
1.4 °C
Feels Like 1 °C
N
0.0
Wind Variable Wind from SE
Gusts 0.0 km/h

Today
High -- | Low -- °C
--% Chance of Precip.
Yesterday
High -- | Low -- °C
Precip. -- mm
6:20 AM 6:11 PM
Waxing Crescent, 35% visible
Pressure 1014 hPa
Visibility 16.1 kilometers
Clouds Clear
Windchill 1 °C
Dew Point -10 °C
Humidity 41%
Rainfall 0 mm
Snow Depth 1 in , 1 in , 1 in
UV 0 out of 12
Pollen 5.40 out of 12
Air Quality Not available.
Flu Activity Not available.
METAR KFLG 300957Z AUTO 00000KT 10SM CLR 02/M01 A3013 RMK AO2 SLP143 T00171006 TSNO

More Conditions Fewer Conditions

Pressure 1014 hPa
Visibility 16.1 kilometers
Clouds Clear
Windchill 1 °C
Dew Point -10 °C
Humidity 41%
Rainfall 0 mm
Snow Depth 1 in , 1 in , 1 in
UV 0 out of 12
Pollen 5.40 out of 12
Air Quality Not available.
Flu Activity Not available.
METAR KFLG 300957Z AUTO 00000KT 10SM CLR 02/M01 A3013 RMK AO2 SLP143 T00171006 TSNO

More Conditions Fewer Conditions

10-Day Weather Forecast

Almanac

Astronomy

Sep. 30, 2014 Rise Set
Actual Time 6:20 AM MST 6:11 PM MST
Civil Twilight 5:55 AM MST 6:37 PM MST
Nautical Twilight 5:25 AM MST 7:06 PM MST
Astronomical Twilight 4:56 AM MST 7:35 PM MST
Moon 12:22 PM MST 10:55 PM MST
Length of Visible Light 12h 41m
Length of Day
11h 51m
Tomorrow will be 2m 12s shorter.
Waxing Crescent, 35% of the Moon is Illuminated
Today
Waxing Crescent
Oct 1
First Quarter
Oct 8
Full
Oct 15
Last Quarter
Oct 23
New

Today's Extremes

State Highs State Lows

Community

WunderPhotos

Upload Photos

1,757,609 photos uploaded!

WunderBlogs® & News

Nearby

Snow Depth

Station Depth Elevation
White Horse Lake 1 in 7180 ft
Maverick Fork 1 in 9200 ft
Snowslide Canyon 1 in 9730 ft
Heber 0 in 7640 ft
Happy Jack 0 in 7630 ft

Earthquake Activity

City Distance Mag. Time & Date
No recent earthquake activity has been reported nearby.
Minimum magnitude displayed is 2.5.

Coastal Water Temperatures

Place Temperature
No Stations Reporting

Nearby Weather Stations